This is the latest recevied weather packets stored in our database for station/object KG5EO. If no packets are shown the sender has not sent any weather packets the latest 1 day(s).
| Time | Temp. | Humidity | Pressure | Rain* | Wind** | Luminosity | Snow |
|---|---|---|---|---|---|---|---|
| 1778092279 | 26.11° C | 24% | 41.2 hPa | 0 mm | - | - | - |
| 1778091679 | 25.56° C | 25% | 41.2 hPa | 0 mm | - | - | - |
| 1778090779 | 25° C | 26% | 41.2 hPa | 0 mm | - | - | - |
| 1778090179 | 25.56° C | 26% | 41.2 hPa | 0 mm | - | - | - |
| 1778089279 | 25° C | 27% | 41.2 hPa | 0 mm | - | - | - |
| 1778086877 | 23.33° C | 30% | 41.2 hPa | 0 mm | - | - | - |
| 1778086576 | 23.33° C | 29% | 41.2 hPa | 0 mm | - | - | - |
| 1778085977 | 23.89° C | 29% | 41.2 hPa | 0 mm | - | - | - |
| 1778083875 | 23.33° C | 31% | 41.2 hPa | 0 mm | - | - | - |
| 1778083575 | 22.78° C | 32% | 41.2 hPa | 0 mm | - | - | - |
| 1778083276 | 22.78° C | 34% | 41.2 hPa | 0 mm | - | - | - |
| 1778082374 | 22.22° C | 34% | 41.2 hPa | 0 mm | - | - | - |
| 1778082075 | 21.67° C | 34% | 41.2 hPa | 0 mm | - | - | - |
| 1778081775 | 21.11° C | 34% | 41.2 hPa | 0 mm | - | - | - |
| 1778081474 | 21.11° C | 37% | 41.2 hPa | 0 mm | - | - | - |
| 1778081174 | 21.11° C | 37% | 41.2 hPa | 0 mm | - | - | - |
| 1778080874 | 20.56° C | 36% | 41.2 hPa | 0 mm | - | - | - |
| 1778079973 | 20° C | 37% | 41.2 hPa | 0 mm | - | - | - |
| 1778079373 | 20° C | 40% | 41.2 hPa | 0 mm | - | - | - |
| 1778077572 | 18.89° C | 42% | 41.2 hPa | 0 mm | - | - | - |
| 1778076373 | 16.67° C | 47% | 41.2 hPa | 0 mm | - | - | - |
| 1778075771 | 15.56° C | 52% | 41.1 hPa | 0 mm | - | - | - |
| 1778075471 | 15.56° C | 50% | 41.1 hPa | 0 mm | - | - | - |
| 1778074270 | 13.33° C | 59% | 41.1 hPa | 0 mm | - | - | - |
| 1778073370 | 12.22° C | 58% | 41.1 hPa | 0 mm | - | - | - |
* Rain latest hour (hover to see other rain measurements)
** Current wind speed in m/s (hover to see current wind gust speed)